Time;durP1;ratioP1;P1;durP2;ratioP2;P2;SDS_P1;SDS_P2;PMS_P1;PMS_P2;Temp;Humidity;BMP_temperature;BMP_pressure;BME280_temperature;BME280_humidity;BME280_pressure;Samples;Min_cycle;Max_cycle;Signal;HPM_P1;HPM_P2
2023/08/30 00:01:03;;;;;;;1.80;0.90;;;;;;;27.58;49.17;98979.78;4898474;29;20391;-70
2023/08/30 00:03:33;;;;;;;2.53;0.98;;;;;;;27.57;48.71;98994.53;4898531;29;20083;-70
2023/08/30 00:06:04;;;;;;;1.15;0.80;;;;;;;27.56;48.80;98992.88;4898212;29;20057;-70
2023/08/30 00:08:32;;;;;;;1.75;1.00;;;;;;;27.54;48.94;99000.50;4898541;29;20083;-70
2023/08/30 00:11:01;;;;;;;2.65;1.00;;;;;;;27.53;49.25;98995.25;4898539;29;20464;-70
2023/08/30 00:13:31;;;;;;;1.98;0.88;;;;;;;27.52;49.28;99004.53;4898361;29;20057;-70
2023/08/30 00:15:59;;;;;;;1.65;0.73;;;;;;;27.50;49.29;99004.75;4898318;29;20463;-70
2023/08/30 00:18:30;;;;;;;1.67;0.90;;;;;;;27.51;49.36;99005.63;4898372;29;20076;-70
2023/08/30 00:21:00;;;;;;;1.42;0.93;;;;;;;27.48;49.43;99004.16;4898307;29;20155;-69
2023/08/30 00:23:28;;;;;;;2.17;1.00;;;;;;;27.47;49.05;99007.13;4898220;29;20048;-69
2023/08/30 00:25:56;;;;;;;1.52;0.80;;;;;;;27.47;49.32;99012.59;4898049;29;20080;-70
2023/08/30 00:28:24;;;;;;;1.42;0.85;;;;;;;27.46;49.33;99011.78;4898026;29;20100;-70
2023/08/30 00:30:56;;;;;;;1.92;1.10;;;;;;;27.45;49.23;99006.53;4898211;29;20045;-70
2023/08/30 00:33:26;;;;;;;1.17;0.70;;;;;;;27.45;49.06;99009.28;4898202;29;20455;-71
2023/08/30 00:35:58;;;;;;;1.92;0.80;;;;;;;27.44;49.53;99015.81;4897982;29;20487;-70
2023/08/30 00:38:28;;;;;;;1.52;0.85;;;;;;;27.43;49.54;99014.97;4897958;29;20049;-70
2023/08/30 00:40:57;;;;;;;1.60;0.75;;;;;;;27.41;49.33;99017.13;4897671;29;20409;-70
2023/08/30 00:43:27;;;;;;;2.47;0.90;;;;;;;27.42;49.15;99015.22;4898075;29;20083;-70
2023/08/30 00:45:56;;;;;;;1.50;0.80;;;;;;;27.40;49.05;99012.69;4897972;29;20056;-70
2023/08/30 00:48:24;;;;;;;1.33;1.05;;;;;;;27.39;49.46;99019.22;4897600;29;20053;-70
2023/08/30 00:50:52;;;;;;;1.25;0.88;;;;;;;27.37;49.30;99026.84;4897782;29;20055;-70
2023/08/30 00:53:21;;;;;;;2.35;0.90;;;;;;;27.37;49.02;99026.84;4897652;29;20049;-70
2023/08/30 00:55:50;;;;;;;2.08;0.73;;;;;;;27.36;49.22;99028.75;4897817;29;20054;-70
2023/08/30 00:58:19;;;;;;;1.60;0.80;;;;;;;27.34;49.45;99027.31;4897620;29;20053;-70
2023/08/30 01:00:48;;;;;;;1.52;0.90;;;;;;;27.33;49.56;99029.22;4897570;29;20076;-70
2023/08/30 01:03:16;;;;;;;1.70;1.00;;;;;;;27.33;49.37;99025.66;4897605;29;20054;-70
2023/08/30 01:05:45;;;;;;;1.25;0.82;;;;;;;27.31;49.51;99028.63;4897341;29;20486;-70
2023/08/30 01:08:13;;;;;;;3.28;1.10;;;;;;;27.30;49.41;99026.91;4897284;29;20060;-70
2023/08/30 01:10:53;;;;;;;1.40;0.90;;;;;;;27.28;49.34;99023.59;4897525;29;20096;-70
2023/08/30 01:13:22;;;;;;;1.98;0.90;;;;;;;27.27;49.04;99021.91;4897499;29;20049;-70
2023/08/30 01:15:52;;;;;;;1.02;0.75;;;;;;;27.25;49.59;99018.56;4897297;29;20057;-70
2023/08/30 01:18:23;;;;;;;1.27;0.80;;;;;;;27.25;49.12;99020.47;4896651;29;20491;-70
2023/08/30 01:20:54;;;;;;;1.63;0.80;;;;;;;27.24;49.45;99024.28;4897146;29;20045;-70
2023/08/30 01:23:34;;;;;;;1.70;0.90;;;;;;;27.22;49.21;99024.53;4897266;29;20048;-70
2023/08/30 01:26:12;;;;;;;1.40;0.95;;;;;;;27.21;49.09;99022.00;4897150;29;20051;-70
2023/08/30 01:28:41;;;;;;;1.10;1.00;;;;;;;27.20;49.15;99021.16;4897022;29;20079;-70
2023/08/30 01:31:12;;;;;;;2.30;1.20;;;;;;;27.18;49.29;99023.28;4896951;29;20049;-70
2023/08/30 01:33:41;;;;;;;2.03;1.20;;;;;;;27.17;49.03;99026.25;4897100;29;20048;-70
2023/08/30 01:36:10;;;;;;;1.88;1.08;;;;;;;27.16;49.55;99028.16;4897124;29;20059;-70
2023/08/30 01:38:40;;;;;;;1.20;0.98;;;;;;;27.14;49.19;99019.34;4897021;29;20151;-70
2023/08/30 01:41:08;;;;;;;1.35;0.90;;;;;;;27.13;49.43;99025.91;4896890;29;20048;-70
2023/08/30 01:43:37;;;;;;;2.03;1.10;;;;;;;27.13;49.22;99031.38;4896927;29;20087;-70
2023/08/30 01:46:07;;;;;;;0.93;0.80;;;;;;;27.11;49.51;99033.47;4896705;29;20542;-69
2023/08/30 01:48:37;;;;;;;1.10;0.90;;;;;;;27.10;49.55;99031.81;4896991;29;20064;-70
2023/08/30 01:51:06;;;;;;;1.20;0.98;;;;;;;27.07;49.28;99022.16;4896734;29;20546;-70
2023/08/30 01:53:35;;;;;;;1.48;1.00;;;;;;;27.06;49.21;99025.97;4896788;29;20048;-70
2023/08/30 01:56:03;;;;;;;2.38;0.93;;;;;;;27.07;49.59;99029.53;4896705;29;20104;-70
2023/08/30 01:58:32;;;;;;;2.25;1.02;;;;;;;27.05;49.15;99029.78;4896498;29;20052;-70
2023/08/30 02:01:04;;;;;;;2.17;1.13;;;;;;;27.05;49.50;99032.50;4896552;29;20052;-71
2023/08/30 02:03:33;;;;;;;1.60;0.95;;;;;;;27.03;49.57;99036.53;4896626;29;20108;-70
2023/08/30 02:06:06;;;;;;;2.33;1.30;;;;;;;27.01;49.30;99028.50;4896478;29;20516;-70
2023/08/30 02:08:39;;;;;;;1.83;1.27;;;;;;;27.01;49.73;99038.63;4896691;29;20063;-70
2023/08/30 02:11:12;;;;;;;2.75;1.40;;;;;;;26.99;49.73;99040.75;4896595;29;20049;-70
2023/08/30 02:13:43;;;;;;;1.63;1.27;;;;;;;26.98;49.79;99030.88;4896666;29;20062;-70
2023/08/30 02:16:14;;;;;;;1.92;1.20;;;;;;;26.95;49.40;99029.44;4896397;29;20483;-70
2023/08/30 02:18:45;;;;;;;2.58;1.42;;;;;;;26.91;49.78;99022.72;4896596;29;20060;-69
2023/08/30 02:21:14;;;;;;;1.85;1.40;;;;;;;26.93;49.28;99034.31;4896402;29;20456;-70
2023/08/30 02:23:42;;;;;;;2.58;1.38;;;;;;;26.91;49.62;99041.88;4896505;29;20052;-69
2023/08/30 02:26:10;;;;;;;2.05;1.48;;;;;;;26.90;49.83;99033.91;4896610;29;20057;-70
2023/08/30 02:28:38;;;;;;;1.92;1.35;;;;;;;26.89;49.93;99041.28;4896479;29;20072;-68
2023/08/30 02:31:06;;;;;;;2.47;1.30;;;;;;;26.88;49.81;99042.34;4899279;29;20052;-68
2023/08/30 02:33:35;;;;;;;2.42;1.40;;;;;;;26.88;49.68;99042.34;4900289;29;20141;-70
2023/08/30 02:36:04;;;;;;;1.95;1.38;;;;;;;26.87;49.56;99045.31;4900250;29;20090;-70
2023/08/30 02:38:33;;;;;;;2.97;1.73;;;;;;;26.86;49.50;99035.44;4900356;29;20096;-71
2023/08/30 02:41:01;;;;;;;2.33;1.40;;;;;;;26.85;49.73;99031.03;4900356;29;20053;-70
2023/08/30 02:43:29;;;;;;;3.03;1.70;;;;;;;26.82;49.52;99041.34;4900085;29;20069;-69
2023/08/30 02:45:57;;;;;;;3.00;1.52;;;;;;;26.79;49.46;99044.53;4900031;29;20048;-69
2023/08/30 02:48:25;;;;;;;2.55;1.63;;;;;;;26.81;49.84;99047.88;4899844;29;20048;-69
2023/08/30 02:50:54;;;;;;;3.38;1.67;;;;;;;26.80;49.52;99038.00;4899996;29;20049;-69
2023/08/30 02:53:23;;;;;;;2.65;1.60;;;;;;;26.78;49.50;99048.34;4899985;29;20156;-69
2023/08/30 02:55:55;;;;;;;2.30;1.60;;;;;;;26.77;49.90;99049.41;4899800;29;20124;-70
2023/08/30 02:58:23;;;;;;;3.13;1.92;;;;;;;26.76;49.79;99042.25;4899791;29;20119;-70
2023/08/30 03:00:51;;;;;;;2.90;1.70;;;;;;;26.76;49.45;99047.72;4899886;29;20056;-69
2023/08/30 03:03:19;;;;;;;2.83;1.92;;;;;;;26.74;49.90;99033.47;4899752;29;20101;-69
2023/08/30 03:05:48;;;;;;;2.67;2.00;;;;;;;26.75;49.63;99043.31;4899568;29;20099;-69
2023/08/30 03:08:18;;;;;;;2.10;1.70;;;;;;;26.75;49.46;99039.75;4899692;29;20048;-69
2023/08/30 03:10:47;;;;;;;3.30;1.95;;;;;;;26.73;49.54;99042.72;4899706;29;20140;-69
2023/08/30 03:13:15;;;;;;;3.08;1.70;;;;;;;26.71;49.54;99038.53;4899565;29;20056;-70
2023/08/30 03:15:44;;;;;;;3.17;1.98;;;;;;;26.71;49.91;99039.34;4899301;29;20048;-69
2023/08/30 03:18:12;;;;;;;3.17;2.03;;;;;;;26.70;49.54;99043.16;4899585;29;20406;-69
2023/08/30 03:20:40;;;;;;;3.75;1.90;;;;;;;26.68;49.44;99042.56;4899347;29;20518;-69
2023/08/30 03:23:08;;;;;;;3.80;2.00;;;;;;;26.67;49.53;99043.63;4899359;29;20060;-69
2023/08/30 03:25:36;;;;;;;3.00;1.90;;;;;;;26.65;49.95;99045.75;4899389;29;20069;-69
2023/08/30 03:28:06;;;;;;;2.38;1.80;;;;;;;26.63;49.62;99047.84;4899143;29;20407;-69
2023/08/30 03:30:35;;;;;;;4.22;2.00;;;;;;;26.64;49.52;99044.06;4899455;29;20045;-69
2023/08/30 03:33:03;;;;;;;2.88;1.90;;;;;;;26.63;49.93;99047.00;4899200;29;20044;-69
2023/08/30 03:35:34;;;;;;;3.15;2.00;;;;;;;26.63;49.61;99055.22;4899154;29;20048;-69
2023/08/30 03:38:03;;;;;;;3.40;2.00;;;;;;;26.59;49.92;99049.38;4898928;29;20590;-69
2023/08/30 03:40:31;;;;;;;2.97;1.90;;;;;;;26.60;49.56;99047.47;4898521;29;20104;-69
2023/08/30 03:42:59;;;;;;;3.00;1.90;;;;;;;26.59;49.51;99046.63;4898769;29;20092;-69
2023/08/30 03:45:29;;;;;;;3.05;2.00;;;;;;;26.57;50.06;99048.75;4899191;29;20048;-70
2023/08/30 03:47:57;;;;;;;3.42;1.80;;;;;;;26.57;49.63;99048.75;4898695;29;20487;-70
2023/08/30 03:50:25;;;;;;;3.60;1.90;;;;;;;26.56;49.63;99052.56;4898838;29;20099;-69
2023/08/30 03:52:53;;;;;;;3.60;2.20;;;;;;;26.56;49.51;99058.03;4898805;29;20115;-69
2023/08/30 03:55:22;;;;;;;3.05;1.83;;;;;;;26.53;49.99;99053.81;4898513;29;20048;-69
2023/08/30 03:57:50;;;;;;;3.40;2.00;;;;;;;26.53;49.90;99069.41;4898670;29;20073;-69
2023/08/30 04:00:18;;;;;;;3.65;2.15;;;;;;;26.52;49.56;99063.09;4898690;29;20052;-70
2023/08/30 04:02:48;;;;;;;2.95;1.85;;;;;;;26.51;50.10;99077.00;4898624;29;20052;-69
2023/08/30 04:05:16;;;;;;;3.58;2.28;;;;;;;26.48;49.62;99072.81;4898413;29;20053;-69
2023/08/30 04:07:44;;;;;;;2.95;1.92;;;;;;;26.49;49.64;99079.13;4898429;29;20400;-69
2023/08/30 04:10:12;;;;;;;3.28;2.10;;;;;;;26.48;50.04;99077.44;4898290;29;20045;-69
2023/08/30 04:12:41;;;;;;;3.30;2.20;;;;;;;26.48;49.97;99082.91;4898276;29;20486;-69
2023/08/30 04:15:12;;;;;;;3.13;1.92;;;;;;;26.46;50.00;99079.56;4898366;29;20048;-69
2023/08/30 04:17:40;;;;;;;3.50;2.10;;;;;;;26.45;49.90;99083.38;4897982;29;20498;-69
2023/08/30 04:20:11;;;;;;;3.63;2.20;;;;;;;26.44;49.99;99087.13;4898223;29;20059;-69
2023/08/30 04:22:39;;;;;;;3.70;2.22;;;;;;;26.42;49.84;99081.06;4897991;29;20063;-69
2023/08/30 04:25:09;;;;;;;4.00;2.30;;;;;;;26.42;49.69;99081.06;4898221;29;20053;-69
2023/08/30 04:27:37;;;;;;;4.22;2.30;;;;;;;26.41;49.95;99080.22;4897756;29;20084;-68
2023/08/30 04:30:06;;;;;;;3.90;2.33;;;;;;;26.38;49.97;99083.41;4898191;29;20052;-68
2023/08/30 04:32:35;;;;;;;3.42;2.10;;;;;;;26.39;49.62;99096.03;4897758;29;20053;-69
2023/08/30 04:35:03;;;;;;;3.35;2.30;;;;;;;26.39;50.17;99111.59;4897681;29;20049;-69
2023/08/30 04:37:33;;;;;;;2.63;1.90;;;;;;;26.37;49.80;99113.69;4897942;29;20151;-69
2023/08/30 04:40:03;;;;;;;4.25;2.63;;;;;;;26.36;50.17;99106.53;4897874;29;20052;-68
2023/08/30 04:42:31;;;;;;;3.40;2.10;;;;;;;26.36;50.03;99114.75;4897848;29;20164;-69
2023/08/30 04:45:02;;;;;;;3.15;2.35;;;;;;;26.33;50.16;99106.97;4897825;29;20049;-69
2023/08/30 04:47:31;;;;;;;3.80;2.30;;;;;;;26.32;49.90;99108.03;4897594;29;20048;-68
2023/08/30 04:50:00;;;;;;;4.45;2.30;;;;;;;26.31;50.06;99109.94;4897611;29;20144;-70
2023/08/30 04:52:28;;;;;;;3.92;2.55;;;;;;;26.31;49.70;99104.47;4897058;29;20052;-69
2023/08/30 04:54:57;;;;;;;4.10;2.70;;;;;;;26.29;50.08;99106.59;4897634;29;20055;-69
2023/08/30 04:57:26;;;;;;;4.05;2.42;;;;;;;26.29;49.94;99105.75;4897555;29;20053;-69
2023/08/30 04:59:54;;;;;;;4.13;2.50;;;;;;;26.29;49.77;99100.28;4897539;29;20056;-67
2023/08/30 05:02:22;;;;;;;5.50;2.58;;;;;;;26.27;50.22;99108.72;4897354;29;20048;-69
2023/08/30 05:04:50;;;;;;;4.82;2.38;;;;;;;26.27;50.09;99108.72;4897119;29;20075;-70
2023/08/30 05:07:18;;;;;;;3.85;2.42;;;;;;;26.27;50.00;99110.59;4897479;29;20045;-69
2023/08/30 05:09:46;;;;;;;4.38;2.80;;;;;;;26.26;49.83;99112.50;4897409;29;20048;-68
2023/08/30 05:12:16;;;;;;;4.25;2.90;;;;;;;26.24;49.82;99114.59;4897316;29;20095;-68
2023/08/30 05:14:44;;;;;;;3.80;2.45;;;;;;;26.24;50.13;99122.78;4896730;29;20052;-69
2023/08/30 05:17:12;;;;;;;4.32;2.50;;;;;;;26.24;49.90;99115.44;4896653;29;20076;-69
2023/08/30 05:19:40;;;;;;;4.05;2.60;;;;;;;26.22;50.30;99114.81;4896969;29;20076;-68
2023/08/30 05:22:08;;;;;;;4.03;2.50;;;;;;;26.22;49.86;99111.25;4897012;29;20045;-68
2023/08/30 05:24:36;;;;;;;4.55;2.70;;;;;;;26.21;50.04;99101.38;4896853;29;20071;-68
2023/08/30 05:27:05;;;;;;;4.70;2.65;;;;;;;26.21;49.93;99104.13;4896592;29;20055;-68
2023/08/30 05:29:34;;;;;;;4.57;2.70;;;;;;;26.20;49.96;99105.19;4896984;29;20048;-70
2023/08/30 05:32:03;;;;;;;5.15;2.55;;;;;;;26.19;50.24;99106.25;4897179;29;20413;-68
2023/08/30 05:34:31;;;;;;;4.32;2.88;;;;;;;26.18;50.29;99110.88;4896871;29;20402;-69
2023/08/30 05:36:59;;;;;;;4.03;2.50;;;;;;;26.17;49.99;99114.66;4896881;29;20088;-70
2023/08/30 05:39:27;;;;;;;3.75;2.47;;;;;;;26.16;50.46;99123.91;4896467;29;20051;-70
2023/08/30 05:41:55;;;;;;;3.65;2.45;;;;;;;26.16;49.97;99129.38;4896721;29;20103;-69
2023/08/30 05:44:23;;;;;;;3.88;2.47;;;;;;;26.16;50.40;99129.38;4896653;29;20056;-69
2023/08/30 05:46:53;;;;;;;3.95;2.40;;;;;;;26.16;50.38;99134.03;4896922;29;20059;-70
2023/08/30 05:49:21;;;;;;;3.78;2.30;;;;;;;26.15;50.30;99144.13;4896930;29;20052;-71
2023/08/30 05:51:49;;;;;;;3.80;2.60;;;;;;;26.15;50.24;99133.19;4896756;29;20080;-70
2023/08/30 05:54:17;;;;;;;4.50;2.90;;;;;;;26.15;50.52;99137.78;4896526;29;20567;-70
2023/08/30 05:56:46;;;;;;;4.72;2.83;;;;;;;26.15;50.48;99132.31;4896594;29;20423;-72
2023/08/30 05:59:14;;;;;;;4.32;2.15;;;;;;;26.14;50.10;99130.63;4897293;29;20049;-70
2023/08/30 06:01:42;;;;;;;3.50;2.42;;;;;;;26.13;50.33;99132.53;4896471;29;20048;-72
2023/08/30 06:04:12;;;;;;;3.28;2.20;;;;;;;26.12;50.08;99133.59;4896500;29;20048;-70
2023/08/30 06:06:40;;;;;;;4.45;2.50;;;;;;;26.13;50.48;99123.50;4896474;29;20052;-70
2023/08/30 06:09:09;;;;;;;4.10;2.65;;;;;;;26.12;50.07;99122.66;4896301;29;20092;-69
2023/08/30 06:11:37;;;;;;;3.70;2.60;;;;;;;26.13;50.07;99123.50;4896732;29;20052;-70
2023/08/30 06:14:05;;;;;;;4.35;2.63;;;;;;;26.12;50.50;99132.75;4896763;29;20087;-69
2023/08/30 06:16:34;;;;;;;3.78;2.60;;;;;;;26.11;50.57;99126.47;4896515;29;20044;-69
2023/08/30 06:19:02;;;;;;;3.72;2.60;;;;;;;26.12;50.41;99136.34;4896668;29;20045;-70
2023/08/30 06:21:31;;;;;;;3.75;2.60;;;;;;;26.12;50.31;99147.25;4896396;29;20056;-69
2023/08/30 06:24:00;;;;;;;4.03;2.83;;;;;;;26.11;50.23;99147.50;4896033;29;20070;-69
2023/08/30 06:26:29;;;;;;;3.72;2.47;;;;;;;26.12;50.32;99144.53;4896194;29;20475;-69
2023/08/30 06:28:58;;;;;;;4.35;2.50;;;;;;;26.11;50.40;99134.66;4896458;29;20112;-69
2023/08/30 06:31:33;;;;;;;4.65;2.67;;;;;;;26.10;50.60;99138.44;4896083;29;20048;-69
2023/08/30 06:34:01;;;;;;;4.32;2.72;;;;;;;26.11;50.55;99142.84;4896012;29;20059;-69
2023/08/30 06:36:29;;;;;;;3.90;2.58;;;;;;;26.09;50.66;99155.91;4896030;29;20056;-69
2023/08/30 06:38:59;;;;;;;4.40;2.80;;;;;;;26.10;50.16;99163.03;4896340;29;20052;-69
2023/08/30 06:41:27;;;;;;;3.90;2.75;;;;;;;26.10;50.48;99160.31;4896057;29;20109;-69
2023/08/30 06:43:56;;;;;;;4.20;2.60;;;;;;;26.11;50.38;99159.25;4896195;29;20136;-70
2023/08/30 06:46:25;;;;;;;4.25;2.67;;;;;;;26.10;50.32;99157.56;4896060;29;20053;-71
2023/08/30 06:48:53;;;;;;;3.55;2.45;;;;;;;26.10;50.29;99154.00;4897128;29;20052;-70
2023/08/30 06:51:22;;;;;;;3.63;2.50;;;;;;;26.10;50.29;99148.53;4898356;29;20051;-69
2023/08/30 06:53:51;;;;;;;3.97;2.60;;;;;;;26.11;50.47;99134.66;4896228;29;20131;-69
2023/08/30 06:56:21;;;;;;;3.88;2.50;;;;;;;26.09;50.22;99134.03;4896223;29;20105;-70
2023/08/30 06:58:50;;;;;;;3.40;2.50;;;;;;;26.08;50.48;99135.09;4896029;29;20060;-69
2023/08/30 07:01:20;;;;;;;3.70;2.60;;;;;;;26.11;50.66;99147.50;4895861;29;20048;-69
2023/08/30 07:03:52;;;;;;;3.90;2.53;;;;;;;26.10;50.21;99152.13;4895915;29;20491;-69
2023/08/30 07:06:21;;;;;;;3.83;2.40;;;;;;;26.10;50.40;99154.84;4895677;29;20061;-69
2023/08/30 07:08:50;;;;;;;4.57;2.67;;;;;;;26.10;50.61;99154.84;4896012;29;20285;-69
2023/08/30 07:11:21;;;;;;;4.40;2.75;;;;;;;26.13;50.32;99164.50;4896275;29;20067;-69
2023/08/30 07:14:01;;;;;;;3.50;2.47;;;;;;;26.11;50.65;99161.97;4895738;29;20048;-69
2023/08/30 07:16:31;;;;;;;5.03;2.50;;;;;;;26.12;50.43;99152.72;4897352;29;20410;-69
2023/08/30 07:19:02;;;;;;;3.40;2.25;;;;;;;26.13;50.42;99156.28;4899219;29;20057;-69
2023/08/30 07:21:31;;;;;;;3.70;2.38;;;;;;;26.12;50.65;99152.72;4899095;29;20057;-68
2023/08/30 07:24:00;;;;;;;4.90;2.40;;;;;;;26.12;50.22;99152.72;4898990;29;20064;-69
2023/08/30 07:26:31;;;;;;;3.95;2.47;;;;;;;26.14;50.28;99155.25;4898787;29;20139;-69
2023/08/30 07:29:00;;;;;;;4.53;2.78;;;;;;;26.14;50.44;99153.34;4899072;29;20410;-69
2023/08/30 07:31:30;;;;;;;4.10;2.47;;;;;;;26.14;50.33;99156.06;4899035;29;20059;-69
2023/08/30 07:34:01;;;;;;;3.92;2.70;;;;;;;26.14;50.19;99158.81;4898878;29;20045;-69
2023/08/30 07:36:32;;;;;;;3.97;2.20;;;;;;;26.16;50.42;99155.88;4898948;29;20064;-69
2023/08/30 07:39:15;;;;;;;4.53;2.60;;;;;;;26.15;50.70;99165.97;4898712;29;20509;-69
2023/08/30 07:41:46;;;;;;;4.05;2.72;;;;;;;26.13;50.20;99164.50;4899200;29;20060;-69
2023/08/30 07:44:16;;;;;;;3.90;2.55;;;;;;;26.17;50.71;99174.78;4899243;29;20123;-69
2023/08/30 07:46:45;;;;;;;5.22;2.70;;;;;;;26.16;50.53;99175.00;4898723;29;20060;-69
2023/08/30 07:49:14;;;;;;;4.03;2.47;;;;;;;26.16;50.69;99178.56;4898798;29;20135;-69
2023/08/30 07:51:46;;;;;;;4.18;2.75;;;;;;;26.16;50.40;99173.13;4898615;29;20562;-69
2023/08/30 07:54:15;;;;;;;3.70;2.65;;;;;;;26.17;50.87;99179.41;4898750;29;20053;-69
2023/08/30 07:56:43;;;;;;;4.10;2.22;;;;;;;26.18;50.77;99184.66;4898749;29;20116;-69
2023/08/30 07:59:14;;;;;;;4.30;2.72;;;;;;;26.18;50.37;99181.09;4898947;29;20144;-69
2023/08/30 08:01:42;;;;;;;4.32;2.53;;;;;;;26.17;50.59;99180.25;4898519;29;20396;-69
2023/08/30 08:04:10;;;;;;;4.80;2.50;;;;;;;26.19;50.87;99183.59;4898248;29;20052;-69
2023/08/30 08:06:39;;;;;;;4.22;2.60;;;;;;;26.18;50.77;99184.66;4898071;29;20080;-69
2023/08/30 08:09:08;;;;;;;5.20;2.78;;;;;;;26.20;50.76;99184.44;4898582;29;20391;-69
2023/08/30 08:11:36;;;;;;;3.63;2.58;;;;;;;26.21;50.74;99195.13;4898214;29;20058;-69
2023/08/30 08:14:05;;;;;;;3.15;2.47;;;;;;;26.20;50.65;99184.44;4898444;29;20136;-69
2023/08/30 08:16:35;;;;;;;3.60;2.60;;;;;;;26.21;50.58;99181.47;4898188;29;20055;-70
2023/08/30 08:19:03;;;;;;;4.35;2.50;;;;;;;26.22;50.65;99196.81;4898417;29;20135;-69
2023/08/30 08:21:31;;;;;;;4.35;2.55;;;;;;;26.23;50.74;99198.50;4898025;29;20487;-69
2023/08/30 08:23:59;;;;;;;3.80;2.45;;;;;;;26.23;50.67;99195.75;4898309;29;20463;-69
2023/08/30 08:26:28;;;;;;;3.75;2.78;;;;;;;26.25;50.36;99196.41;4897769;29;20055;-69
2023/08/30 08:28:56;;;;;;;4.93;2.85;;;;;;;26.26;50.90;99189.03;4897215;29;20048;-69
2023/08/30 08:31:25;;;;;;;3.70;2.60;;;;;;;26.27;50.69;99200.81;4898001;29;20048;-69
2023/08/30 08:34:09;;;;;;;4.20;2.70;;;;;;;26.28;50.43;99199.75;4898108;29;20107;-69
2023/08/30 08:36:38;;;;;;;3.90;2.72;;;;;;;26.29;50.58;99193.22;4897953;29;20092;-68
2023/08/30 08:39:07;;;;;;;4.45;2.70;;;;;;;26.29;51.03;99198.69;4898025;29;20056;-68
2023/08/30 08:41:42;;;;;;;3.78;2.75;;;;;;;26.28;50.49;99197.84;4897952;29;20052;-68
2023/08/30 08:44:11;;;;;;;3.88;2.80;;;;;;;26.30;50.80;99190.25;4897687;29;20112;-68
2023/08/30 08:46:41;;;;;;;3.90;2.90;;;;;;;26.31;50.83;99191.09;4897688;29;20392;-69
2023/08/30 08:49:14;;;;;;;3.78;2.55;;;;;;;26.33;50.59;99189.81;4897862;29;20052;-69
2023/08/30 08:51:43;;;;;;;4.60;2.78;;;;;;;26.32;50.77;99198.22;4897679;29;20052;-69
2023/08/30 08:54:13;;;;;;;3.88;3.00;;;;;;;26.33;51.00;99200.75;4897490;29;20478;-69
2023/08/30 08:56:41;;;;;;;4.30;2.90;;;;;;;26.34;50.71;99199.69;4897459;29;20045;-69
2023/08/30 08:59:09;;;;;;;4.47;2.90;;;;;;;26.34;50.72;99207.03;4897523;29;20148;-69
2023/08/30 09:01:40;;;;;;;3.88;2.72;;;;;;;26.34;50.88;99207.03;4897387;29;20546;-69
2023/08/30 09:04:11;;;;;;;4.00;2.67;;;;;;;26.35;50.66;99203.28;4897447;29;20426;-69
2023/08/30 09:06:40;;;;;;;4.35;3.00;;;;;;;26.35;50.55;99204.13;4896941;29;20113;-70
2023/08/30 09:09:09;;;;;;;3.83;2.72;;;;;;;26.35;50.66;99208.75;4897212;29;20152;-70
2023/08/30 09:11:38;;;;;;;3.92;3.00;;;;;;;26.37;50.83;99209.38;4897382;29;20056;-69
2023/08/30 09:14:19;;;;;;;4.43;2.90;;;;;;;26.36;50.95;99204.97;4897387;29;20048;-70
2023/08/30 09:16:57;;;;;;;3.70;2.67;;;;;;;26.38;51.16;99219.28;4897164;29;20048;-70
2023/08/30 09:19:27;;;;;;;3.72;2.72;;;;;;;26.38;50.76;99216.53;4896573;29;20136;-69
2023/08/30 09:21:57;;;;;;;5.03;3.05;;;;;;;26.36;51.20;99215.88;4897303;29;20135;-68
2023/08/30 09:24:26;;;;;;;3.85;2.75;;;;;;;26.38;51.02;99219.28;4897226;29;20048;-69
2023/08/30 09:26:55;;;;;;;3.92;2.75;;;;;;;26.38;50.66;99219.28;4896848;29;20053;-69
2023/08/30 09:29:24;;;;;;;4.13;3.10;;;;;;;26.36;51.20;99216.72;4897113;29;20087;-69
2023/08/30 09:31:53;;;;;;;3.95;2.85;;;;;;;26.39;50.79;99221.78;4896977;29;20092;-69
2023/08/30 09:34:23;;;;;;;4.53;3.03;;;;;;;26.40;50.87;99223.44;4897299;29;20056;-69
2023/08/30 09:36:55;;;;;;;4.32;2.88;;;;;;;26.41;50.81;99219.66;4896948;29;20459;-70
2023/08/30 09:39:23;;;;;;;4.07;2.92;;;;;;;26.41;50.68;99218.81;4896614;29;20053;-69
2023/08/30 09:41:52;;;;;;;4.80;3.15;;;;;;;26.41;50.76;99224.28;4896489;29;20089;-69
2023/08/30 09:44:21;;;;;;;4.40;2.80;;;;;;;26.43;50.69;99227.63;4896601;29;20266;-69
2023/08/30 09:46:51;;;;;;;5.13;3.10;;;;;;;26.44;50.81;99232.03;4896445;29;20095;-69
2023/08/30 09:49:24;;;;;;;3.67;2.67;;;;;;;26.45;50.84;99228.28;4896660;29;20063;-69
2023/08/30 09:51:55;;;;;;;4.85;2.97;;;;;;;26.45;50.68;99236.47;4896650;29;20132;-68
2023/08/30 09:54:24;;;;;;;3.97;2.78;;;;;;;26.43;51.07;99236.66;4896585;29;20048;-69
2023/08/30 09:56:57;;;;;;;3.90;2.78;;;;;;;26.46;51.24;99246.34;4896451;29;20052;-69
2023/08/30 09:59:27;;;;;;;4.25;2.97;;;;;;;26.46;51.11;99244.47;4896661;29;20582;-68
2023/08/30 10:01:55;;;;;;;4.38;3.05;;;;;;;26.47;50.98;99239.81;4896887;29;20049;-68
2023/08/30 10:04:26;;;;;;;4.43;3.20;;;;;;;26.46;51.24;99239.00;4896565;29;20048;-69
2023/08/30 10:06:57;;;;;;;4.20;2.90;;;;;;;26.45;50.67;99234.59;4896460;29;20052;-68
2023/08/30 10:09:26;;;;;;;4.13;3.05;;;;;;;26.49;51.15;99237.69;4896376;29;20076;-69
2023/08/30 10:11:55;;;;;;;3.80;2.85;;;;;;;26.49;50.80;99232.22;4896517;29;20063;-68
2023/08/30 10:14:24;;;;;;;3.90;2.70;;;;;;;26.50;51.22;99242.94;4896482;29;20485;-68
2023/08/30 10:17:00;;;;;;;4.35;2.97;;;;;;;26.51;50.69;99252.00;4896354;29;20498;-69
2023/08/30 10:19:30;;;;;;;4.25;3.30;;;;;;;26.51;50.96;99243.78;4896543;29;20055;-70
2023/08/30 10:22:04;;;;;;;5.32;3.30;;;;;;;26.52;50.90;99242.72;4896575;29;21033;-69
2023/08/30 10:24:40;;;;;;;4.75;3.00;;;;;;;26.52;50.84;99243.56;4896124;29;20053;-68
2023/08/30 10:27:25;;;;;;;4.50;2.90;;;;;;;26.52;51.14;99237.25;4896199;29;20045;-69
2023/08/30 10:29:55;;;;;;;4.13;2.78;;;;;;;26.53;50.63;99244.41;4896299;29;20049;-69
2023/08/30 10:32:23;;;;;;;5.40;3.17;;;;;;;26.54;50.76;99240.63;4896290;29;20048;-69
2023/08/30 10:34:52;;;;;;;4.65;3.22;;;;;;;26.54;50.86;99240.63;4896086;29;20053;-69
2023/08/30 10:37:27;;;;;;;3.60;2.53;;;;;;;26.55;51.13;99242.31;4896457;29;20057;-69
2023/08/30 10:40:00;;;;;;;4.53;3.10;;;;;;;26.56;50.84;99237.69;4896147;29;20055;-69
2023/08/30 10:42:31;;;;;;;4.13;2.75;;;;;;;26.56;51.00;99238.50;4896356;29;20074;-68
2023/08/30 10:45:05;;;;;;;4.65;2.85;;;;;;;26.57;50.72;99239.34;4896084;29;20045;-69
2023/08/30 10:47:37;;;;;;;3.60;2.50;;;;;;;26.57;51.04;99248.38;4896145;29;20060;-69
2023/08/30 10:50:08;;;;;;;4.18;3.00;;;;;;;26.58;50.98;99250.06;4896010;29;20511;-69
2023/08/30 10:52:38;;;;;;;4.68;2.90;;;;;;;26.57;50.71;99245.66;4899803;29;20049;-70
2023/08/30 10:55:08;;;;;;;4.20;2.97;;;;;;;26.58;50.64;99236.38;4899657;29;20049;-68
2023/08/30 10:57:37;;;;;;;5.80;3.10;;;;;;;26.59;50.90;99245.44;4899604;29;20060;-69
2023/08/30 11:00:07;;;;;;;5.95;3.05;;;;;;;26.57;50.79;99245.66;4899375;29;20056;-68
2023/08/30 11:02:37;;;;;;;5.15;3.20;;;;;;;26.59;50.70;99249.00;4899597;29;20513;-69
2023/08/30 11:05:07;;;;;;;4.57;2.97;;;;;;;26.59;50.91;99240.78;4899318;29;20525;-69
2023/08/30 11:07:36;;;;;;;4.82;3.10;;;;;;;26.61;50.70;99243.31;4899442;29;20055;-69
2023/08/30 11:10:08;;;;;;;4.60;2.75;;;;;;;26.60;50.46;99233.44;4899387;29;20048;-69
2023/08/30 11:12:36;;;;;;;4.30;2.90;;;;;;;26.62;51.07;99234.88;4899113;29;20054;-69
2023/08/30 11:15:08;;;;;;;5.20;3.05;;;;;;;26.63;50.89;99235.72;4899479;29;20135;-69
2023/08/30 11:17:36;;;;;;;4.50;2.80;;;;;;;26.64;50.62;99238.25;4899093;29;20495;-69
2023/08/30 11:20:08;;;;;;;4.78;2.60;;;;;;;26.66;50.96;99227.09;4899261;29;20052;-68
2023/08/30 11:22:38;;;;;;;3.67;2.67;;;;;;;26.66;50.65;99236.13;4899170;29;20056;-69
2023/08/30 11:25:09;;;;;;;4.35;2.65;;;;;;;26.68;51.00;99228.53;4899034;29;20498;-70
2023/08/30 11:27:38;;;;;;;3.83;2.70;;;;;;;26.68;50.65;99225.78;4899034;29;20444;-70
2023/08/30 11:30:15;;;;;;;4.70;3.00;;;;;;;26.69;51.00;99227.47;4899226;29;20130;-69
2023/08/30 11:32:44;;;;;;;3.88;2.80;;;;;;;26.71;50.87;99232.72;4899101;29;20055;-68
2023/08/30 11:35:12;;;;;;;4.63;2.95;;;;;;;26.71;50.65;99228.06;4898855;29;20182;-68
2023/08/30 11:37:42;;;;;;;4.45;2.85;;;;;;;26.75;50.89;99229.31;4898789;29;20414;-69
2023/08/30 11:40:12;;;;;;;3.47;2.50;;;;;;;26.77;50.94;99232.69;4898939;29;20514;-69
2023/08/30 11:42:41;;;;;;;3.75;2.63;;;;;;;26.77;50.50;99219.00;4898994;29;20044;-69
2023/08/30 11:45:10;;;;;;;4.18;2.90;;;;;;;26.81;50.78;99230.31;4898928;29;20123;-69